createdAt,value
2023-05-10T00:00:08.191Z,100587.13
2023-05-10T00:01:12.351Z,100580.98
2023-05-10T00:02:15.693Z,100582.70
2023-05-10T00:03:18.167Z,100593.11
2023-05-10T00:04:20.836Z,100587.80
2023-05-10T00:05:23.099Z,100591.22
2023-05-10T00:06:25.444Z,100592.05
2023-05-10T00:07:28.588Z,100585.20
2023-05-10T00:08:30.849Z,100583.41
2023-05-10T00:09:33.078Z,100584.19
2023-05-10T00:10:37.639Z,100578.17
2023-05-10T00:11:39.882Z,100581.83
2023-05-10T00:12:43.176Z,100586.20
2023-05-10T00:13:46.013Z,100581.86
2023-05-10T00:14:48.334Z,100577.64
2023-05-10T00:15:51.046Z,100579.23
2023-05-10T00:16:53.543Z,100572.25
2023-05-10T00:17:55.819Z,100583.48
2023-05-10T00:18:58.220Z,100579.09
2023-05-10T00:20:00.879Z,100580.72
2023-05-10T00:21:03.249Z,100580.06
2023-05-10T00:22:06.139Z,100577.42
2023-05-10T00:23:08.529Z,100583.52
2023-05-10T00:24:10.806Z,100591.30
2023-05-10T00:25:13.534Z,100587.05
2023-05-10T00:26:17.134Z,100582.70
2023-05-10T00:27:21.212Z,100586.03
2023-05-10T00:28:23.508Z,100580.77
2023-05-10T00:29:26.072Z,100587.66
2023-05-10T00:30:29.309Z,100587.61
2023-05-10T00:31:31.523Z,100575.48
2023-05-10T00:32:33.967Z,100582.30
2023-05-10T00:33:36.386Z,100580.54
2023-05-10T00:34:38.397Z,100578.83
2023-05-10T00:35:41.778Z,100575.41
2023-05-10T00:36:45.263Z,100582.25
2023-05-10T00:37:49.335Z,100583.09
2023-05-10T00:38:51.538Z,100582.25
2023-05-10T00:39:53.635Z,100583.17
2023-05-10T00:40:56.568Z,100582.30
2023-05-10T00:42:01.065Z,100575.36
2023-05-10T00:43:03.839Z,100582.17
2023-05-10T00:44:06.273Z,100580.41
2023-05-10T00:45:09.301Z,100579.48
2023-05-10T00:46:11.943Z,100576.98
2023-05-10T00:47:14.556Z,100582.20
2023-05-10T00:48:17.156Z,100585.59
2023-05-10T00:49:20.202Z,100580.41
2023-05-10T00:50:23.872Z,100581.24
2023-05-10T00:51:26.383Z,100584.66
2023-05-10T00:52:30.016Z,100581.19
2023-05-10T00:53:35.378Z,100580.27
2023-05-10T00:54:38.099Z,100576.70
2023-05-10T00:55:40.531Z,100576.70
2023-05-10T00:56:45.088Z,100581.98
2023-05-10T00:57:48.038Z,100582.86
2023-05-10T00:58:50.514Z,100582.11
2023-05-10T00:59:52.948Z,100576.01
2023-05-10T01:00:57.601Z,100575.04
2023-05-10T01:02:00.251Z,100584.48
2023-05-10T01:03:03.779Z,100585.45
2023-05-10T01:04:06.155Z,100586.37
2023-05-10T01:05:09.042Z,100585.45
2023-05-10T01:06:11.735Z,100588.88
2023-05-10T01:07:13.952Z,100584.48
2023-05-10T01:08:16.677Z,100587.81
2023-05-10T01:09:19.627Z,100586.94
2023-05-10T01:10:22.363Z,100580.08
2023-05-10T01:11:25.566Z,100586.00
2023-05-10T01:12:27.876Z,100587.71
2023-05-10T01:13:33.818Z,100585.12
2023-05-10T01:14:36.767Z,100587.67
2023-05-10T01:15:40.645Z,100585.12
2023-05-10T01:16:44.348Z,100584.34
2023-05-10T01:17:48.545Z,100587.85
2023-05-10T01:18:52.877Z,100583.60
2023-05-10T01:19:55.149Z,100581.05
2023-05-10T01:22:42.398Z,100573.72
2023-05-10T01:24:00.234Z,100582.63
2023-05-10T01:25:30.282Z,100581.70
2023-05-10T01:26:51.725Z,100574.06
2023-05-10T01:28:10.892Z,100577.49
2023-05-10T01:29:36.384Z,100575.83
2023-05-10T01:31:05.809Z,100581.84
2023-05-10T01:32:14.878Z,100580.08
2023-05-10T01:34:40.207Z,100570.20
2023-05-10T01:35:59.212Z,100577.34
2023-05-10T01:37:05.595Z,100579.01
2023-05-10T01:38:25.420Z,100576.45
2023-05-10T01:39:49.124Z,100578.22
2023-05-10T01:41:01.023Z,100575.59
2023-05-10T01:42:13.126Z,100572.95
2023-05-10T01:43:25.364Z,100576.41
2023-05-10T01:44:55.133Z,100579.94
2023-05-10T01:46:09.586Z,100567.03
2023-05-10T01:47:18.115Z,100573.97
2023-05-10T01:48:23.602Z,100575.73
2023-05-10T01:49:29.372Z,100566.14
2023-05-10T01:50:34.966Z,100573.88
2023-05-10T01:51:40.766Z,100573.86
2023-05-10T01:52:45.103Z,100570.30
2023-05-10T01:53:50.092Z,100572.90
2023-05-10T01:54:58.939Z,100566.00
2023-05-10T01:56:02.487Z,100567.90
2023-05-10T01:57:09.241Z,100563.51
2023-05-10T01:58:14.864Z,100561.78
2023-05-10T01:59:19.820Z,100567.95
2023-05-10T02:00:25.132Z,100574.06
2023-05-10T02:01:28.977Z,100567.13
2023-05-10T02:02:40.165Z,100574.80
2023-05-10T02:03:45.158Z,100556.70
2023-05-10T02:04:50.004Z,100571.38
2023-05-10T02:05:55.479Z,100568.87
2023-05-10T02:06:58.486Z,100563.65
2023-05-10T02:08:03.773Z,100567.25
2023-05-10T02:09:08.441Z,100569.84
2023-05-10T02:10:14.138Z,100561.24
2023-05-10T02:11:20.173Z,100570.69
2023-05-10T02:12:24.929Z,100569.84
2023-05-10T02:13:30.136Z,100560.31
2023-05-10T02:14:36.326Z,100564.62
2023-05-10T02:15:40.972Z,100562.87
2023-05-10T02:16:44.767Z,100571.52
2023-05-10T02:17:47.712Z,100570.73
2023-05-10T02:18:52.886Z,100572.55
2023-05-10T02:19:57.819Z,100562.36
2023-05-10T02:21:02.683Z,100567.63
2023-05-10T02:22:06.653Z,100572.80
2023-05-10T02:23:10.336Z,100570.17
2023-05-10T02:24:15.275Z,100577.91
2023-05-10T02:25:20.828Z,100576.16
2023-05-10T02:26:26.550Z,100570.09
2023-05-10T02:27:31.246Z,100569.39
2023-05-10T02:28:36.252Z,100571.89
2023-05-10T02:29:39.817Z,100571.88
2023-05-10T02:30:43.444Z,100571.80
2023-05-10T02:31:47.233Z,100569.16
2023-05-10T02:32:51.325Z,100571.75
2023-05-10T02:33:54.850Z,100566.56
2023-05-10T02:34:59.233Z,100572.55
2023-05-10T02:36:03.966Z,100569.11
2023-05-10T02:37:06.852Z,100565.69
2023-05-10T02:38:12.153Z,100570.09
2023-05-10T02:39:16.442Z,100563.41
2023-05-10T02:40:20.336Z,100568.65
2023-05-10T02:41:24.651Z,100565.13
2023-05-10T02:42:29.835Z,100558.94
2023-05-10T02:43:35.485Z,100563.33
2023-05-10T02:44:39.896Z,100565.97
2023-05-10T02:45:45.946Z,100566.84
2023-05-10T02:46:48.413Z,100570.23
2023-05-10T02:47:51.112Z,100564.99
2023-05-10T02:48:53.612Z,100572.81
2023-05-10T02:49:56.297Z,100565.04
2023-05-10T02:51:02.162Z,100574.66
2023-05-10T02:52:10.257Z,100572.86
2023-05-10T02:53:17.022Z,100567.67
2023-05-10T02:54:22.767Z,100564.25
2023-05-10T02:55:28.830Z,100569.30
2023-05-10T02:56:34.760Z,100574.61
2023-05-10T02:57:40.975Z,100573.73
2023-05-10T02:58:43.265Z,100569.42
2023-05-10T02:59:46.478Z,100571.15
2023-05-10T03:00:48.969Z,100573.70
2023-05-10T03:01:51.050Z,100578.83
2023-05-10T03:02:54.669Z,100573.70
2023-05-10T03:03:57.697Z,100580.54
2023-05-10T03:04:59.949Z,100572.68
2023-05-10T03:06:02.929Z,100575.27
2023-05-10T03:07:05.584Z,100568.52
2023-05-10T03:08:08.442Z,100568.52
2023-05-10T03:09:13.005Z,100578.74
2023-05-10T03:10:15.786Z,100578.74
2023-05-10T03:11:50.193Z,100577.91
2023-05-10T03:13:19.402Z,100577.06
2023-05-10T03:14:35.391Z,100577.12
2023-05-10T03:15:57.922Z,100568.42
2023-05-10T03:17:12.123Z,100573.56
2023-05-10T03:18:18.529Z,100576.29
2023-05-10T03:19:30.386Z,100575.67
2023-05-10T03:21:59.366Z,100582.44
2023-05-10T03:23:16.089Z,100580.06
2023-05-10T03:24:21.526Z,100586.03
2023-05-10T03:25:25.189Z,100578.44
2023-05-10T03:26:30.147Z,100589.72
2023-05-10T03:27:43.724Z,100583.78
2023-05-10T03:28:48.692Z,100581.11
2023-05-10T03:29:53.332Z,100581.07
2023-05-10T03:30:56.973Z,100583.63
2023-05-10T03:32:00.354Z,100581.03
2023-05-10T03:33:06.940Z,100577.56
2023-05-10T03:34:10.829Z,100580.10
2023-05-10T03:35:16.472Z,100580.94
2023-05-10T03:36:20.648Z,100574.83
2023-05-10T03:37:22.923Z,100575.67
2023-05-10T03:38:25.276Z,100573.08
2023-05-10T03:39:27.960Z,100584.23
2023-05-10T03:40:33.010Z,100585.02
2023-05-10T03:41:39.454Z,100579.75
2023-05-10T03:42:41.929Z,100582.20
2023-05-10T03:43:44.340Z,100581.24
2023-05-10T03:44:47.130Z,100583.93
2023-05-10T03:45:50.482Z,100583.83
2023-05-10T03:46:53.339Z,100583.69
2023-05-10T03:47:56.567Z,100579.30
2023-05-10T03:48:59.728Z,100581.05
2023-05-10T03:50:02.910Z,100581.89
2023-05-10T03:51:06.349Z,100581.98
2023-05-10T03:52:08.619Z,100579.30
2023-05-10T03:53:11.888Z,100584.44
2023-05-10T03:54:14.194Z,100583.55
2023-05-10T03:55:17.248Z,100584.34
2023-05-10T03:56:21.260Z,100592.71
2023-05-10T03:57:23.743Z,100584.98
2023-05-10T03:58:25.976Z,100586.84
2023-05-10T03:59:28.721Z,100592.02
2023-05-10T04:00:32.817Z,100586.74
2023-05-10T04:01:36.053Z,100579.64
2023-05-10T04:02:39.845Z,100576.02
2023-05-10T04:03:44.056Z,100580.13
2023-05-10T04:04:46.919Z,100581.77
2023-05-10T04:05:49.217Z,100584.28
2023-05-10T04:06:51.456Z,100585.98
2023-05-10T04:07:54.365Z,100589.55
2023-05-10T04:08:56.762Z,100585.98
2023-05-10T04:10:00.352Z,100585.10
2023-05-10T04:11:08.262Z,100593.81
2023-05-10T04:12:11.130Z,100587.64
2023-05-10T04:13:13.313Z,100591.85
2023-05-10T04:14:15.694Z,100591.80
2023-05-10T04:15:18.393Z,100587.39
2023-05-10T04:16:21.806Z,100596.73
2023-05-10T04:17:24.610Z,100593.05
2023-05-10T04:18:27.414Z,100595.63
2023-05-10T04:19:31.817Z,100592.05
2023-05-10T04:20:34.628Z,100589.45
2023-05-10T04:21:38.089Z,100586.86
2023-05-10T04:22:41.105Z,100597.46
2023-05-10T04:23:43.235Z,100596.58
2023-05-10T04:24:45.426Z,100592.98
2023-05-10T04:25:48.976Z,100591.98
2023-05-10T04:26:51.471Z,100587.86
2023-05-10T04:27:53.714Z,100587.86
2023-05-10T04:28:56.872Z,100586.80
2023-05-10T04:29:59.289Z,100591.89
2023-05-10T04:31:07.518Z,100591.94
2023-05-10T04:32:10.565Z,100591.06
2023-05-10T04:33:12.769Z,100584.92
2023-05-10T04:34:15.315Z,100593.48
2023-05-10T04:35:17.713Z,100595.21
2023-05-10T04:36:20.379Z,100592.62
2023-05-10T04:37:23.406Z,100596.42
2023-05-10T04:38:26.539Z,100589.50
2023-05-10T04:39:28.912Z,100597.24
2023-05-10T04:40:31.110Z,100596.27
2023-05-10T04:41:33.333Z,100594.44
2023-05-10T04:42:35.950Z,100599.52
2023-05-10T04:43:39.085Z,100597.91
2023-05-10T04:44:41.822Z,100602.16
2023-05-10T04:45:44.099Z,100601.39
2023-05-10T04:46:47.098Z,100602.28
2023-05-10T04:47:49.411Z,100602.21
2023-05-10T04:48:52.016Z,100591.73
2023-05-10T04:49:54.239Z,100603.00
2023-05-10T04:50:56.899Z,100609.02
2023-05-10T04:51:59.606Z,100598.52
2023-05-10T04:53:01.921Z,100588.34
2023-05-10T04:54:06.574Z,100588.34
2023-05-10T04:55:11.257Z,100595.97
2023-05-10T04:56:13.825Z,100597.86
2023-05-10T04:57:15.928Z,100601.28
2023-05-10T04:58:18.122Z,100592.44
2023-05-10T04:59:20.330Z,100594.92
2023-05-10T05:00:22.476Z,100597.37
2023-05-10T05:01:24.806Z,100599.84
2023-05-10T05:02:28.082Z,100602.43
2023-05-10T05:03:30.907Z,100601.39
2023-05-10T05:04:33.208Z,100603.17
2023-05-10T05:05:36.122Z,100604.70
2023-05-10T05:06:38.561Z,100608.05
2023-05-10T05:07:41.667Z,100608.05
2023-05-10T05:08:43.808Z,100601.05
2023-05-10T05:09:45.912Z,100605.36
2023-05-10T05:10:50.543Z,100608.89
2023-05-10T05:11:52.733Z,100607.95
2023-05-10T05:12:54.957Z,100605.34
2023-05-10T05:13:59.263Z,100613.15
2023-05-10T05:15:03.435Z,100610.61
2023-05-10T05:16:07.227Z,100610.66
2023-05-10T05:17:09.595Z,100613.15
2023-05-10T05:18:12.794Z,100609.77
2023-05-10T05:19:16.876Z,100606.41
2023-05-10T05:20:19.592Z,100601.22
2023-05-10T05:21:22.690Z,100604.88
2023-05-10T05:22:27.311Z,100604.88
2023-05-10T05:23:29.634Z,100606.47
2023-05-10T05:24:39.350Z,100608.05
2023-05-10T05:25:42.459Z,100604.47
2023-05-10T05:26:45.314Z,100603.53
2023-05-10T05:27:47.555Z,100602.52
2023-05-10T05:28:51.535Z,100601.62
2023-05-10T05:29:55.918Z,100613.75
2023-05-10T05:30:58.898Z,100604.22
2023-05-10T05:32:02.552Z,100602.47
2023-05-10T05:33:05.158Z,100604.22
2023-05-10T05:34:08.366Z,100597.39
2023-05-10T05:35:10.639Z,100601.05
2023-05-10T05:36:13.269Z,100599.27
2023-05-10T05:37:21.742Z,100594.18
2023-05-10T05:38:24.117Z,100594.08
2023-05-10T05:39:27.558Z,100592.07
2023-05-10T05:40:29.851Z,100593.66
2023-05-10T05:41:33.103Z,100597.20
2023-05-10T05:42:35.691Z,100595.37
2023-05-10T05:43:38.749Z,100597.78
2023-05-10T05:44:41.894Z,100596.73
2023-05-10T05:45:45.107Z,100596.53
2023-05-10T05:46:47.546Z,100595.59
2023-05-10T05:47:49.945Z,100599.84
2023-05-10T05:48:52.218Z,100597.95
2023-05-10T05:49:54.655Z,100595.98
2023-05-10T05:50:57.113Z,100604.59
2023-05-10T05:52:01.380Z,100603.70
2023-05-10T05:53:03.646Z,100600.16
2023-05-10T05:54:06.814Z,100606.01
2023-05-10T05:55:10.469Z,100605.82
2023-05-10T05:56:13.688Z,100603.98
2023-05-10T05:57:16.202Z,100600.62
2023-05-10T05:58:18.428Z,100600.73
2023-05-10T05:59:20.672Z,100603.27
2023-05-10T06:00:23.223Z,100612.65
2023-05-10T06:01:25.550Z,100607.64
2023-05-10T06:02:27.908Z,100613.55
2023-05-10T06:03:30.879Z,100611.62
2023-05-10T06:04:33.343Z,100607.98
2023-05-10T06:05:35.607Z,100607.98
2023-05-10T06:06:38.161Z,100608.94
2023-05-10T06:07:42.360Z,100601.81
2023-05-10T06:08:45.272Z,100598.90
2023-05-10T06:09:48.365Z,100603.82
2023-05-10T06:10:51.849Z,100597.52
2023-05-10T06:11:55.324Z,100597.31
2023-05-10T06:12:57.472Z,100604.86
2023-05-10T06:13:59.812Z,100610.61
2023-05-10T06:15:02.800Z,100604.36
2023-05-10T06:16:06.646Z,100599.90
2023-05-10T06:17:08.972Z,100604.09
2023-05-10T06:18:11.473Z,100600.70
2023-05-10T06:19:13.842Z,100603.09
2023-05-10T06:20:17.253Z,100607.20
2023-05-10T06:21:20.233Z,100603.50
2023-05-10T06:22:24.156Z,100601.48
2023-05-10T06:23:27.334Z,100596.13
2023-05-10T06:24:29.392Z,100602.75
2023-05-10T06:25:31.720Z,100603.63
2023-05-10T06:26:34.340Z,100603.50
2023-05-10T06:27:37.600Z,100599.83
2023-05-10T06:28:41.297Z,100602.22
2023-05-10T06:29:43.706Z,100600.41
2023-05-10T06:30:46.391Z,100598.48
2023-05-10T06:31:48.570Z,100597.73
2023-05-10T06:32:51.156Z,100602.05
2023-05-10T06:33:55.380Z,100592.53
2023-05-10T06:34:57.908Z,100598.02
2023-05-10T06:36:00.510Z,100599.80
2023-05-10T06:37:03.891Z,100603.40
2023-05-10T06:38:07.262Z,100592.20
2023-05-10T06:39:10.301Z,100601.50
2023-05-10T06:40:15.282Z,100595.05
2023-05-10T06:41:17.487Z,100598.45
2023-05-10T06:42:20.719Z,100607.25
2023-05-10T06:43:23.307Z,100596.63
2023-05-10T06:44:25.551Z,100600.16
2023-05-10T06:45:27.772Z,100599.02
2023-05-10T06:46:30.532Z,100593.67
2023-05-10T06:47:32.829Z,100598.83
2023-05-10T06:48:36.215Z,100598.83
2023-05-10T06:49:38.578Z,100598.98
2023-05-10T06:50:41.201Z,100599.05
2023-05-10T06:51:43.312Z,100599.73
2023-05-10T06:52:45.665Z,100593.77
2023-05-10T06:53:47.878Z,100594.74
2023-05-10T06:54:51.211Z,100606.97
2023-05-10T06:55:53.367Z,100600.34
2023-05-10T06:56:56.202Z,100604.92
2023-05-10T06:57:58.352Z,100606.17
2023-05-10T06:59:00.721Z,100609.52
2023-05-10T07:00:05.875Z,100607.59
2023-05-10T07:01:08.698Z,100608.27
2023-05-10T07:02:11.126Z,100607.49
2023-05-10T07:03:13.661Z,100610.84
2023-05-10T07:04:16.078Z,100613.61
2023-05-10T07:05:19.410Z,100611.90
2023-05-10T07:06:33.097Z,100604.75
2023-05-10T07:07:26.575Z,100607.11
2023-05-10T07:08:34.614Z,100604.20
2023-05-10T07:09:36.881Z,100611.05
2023-05-10T07:10:40.188Z,100606.81
2023-05-10T07:11:42.473Z,100607.72
2023-05-10T07:12:44.896Z,100610.16
2023-05-10T07:13:47.026Z,100604.88
2023-05-10T07:14:49.873Z,100605.55
2023-05-10T07:15:52.297Z,100605.17
2023-05-10T07:16:54.490Z,100606.01
2023-05-10T07:17:56.899Z,100597.41
2023-05-10T07:18:59.035Z,100605.78
2023-05-10T07:20:01.862Z,100611.80
2023-05-10T07:21:04.477Z,100606.52
2023-05-10T07:22:07.571Z,100608.38
2023-05-10T07:23:09.836Z,100607.61
2023-05-10T07:24:13.250Z,100612.77
2023-05-10T07:25:15.925Z,100602.17
2023-05-10T07:26:19.886Z,100602.17
2023-05-10T07:27:22.144Z,100609.79
2023-05-10T07:28:27.374Z,100609.99
2023-05-10T07:29:30.044Z,100615.07
2023-05-10T07:30:32.800Z,100615.81
2023-05-10T07:31:36.431Z,100614.11
2023-05-10T07:32:39.915Z,100613.06
2023-05-10T07:33:43.388Z,100612.06
2023-05-10T07:34:45.540Z,100608.66
2023-05-10T07:35:48.621Z,100612.73
2023-05-10T07:36:51.559Z,100612.36
2023-05-10T07:37:53.878Z,100608.74
2023-05-10T07:38:57.795Z,100616.33
2023-05-10T07:40:00.089Z,100617.90
2023-05-10T07:41:02.405Z,100607.11
2023-05-10T07:42:05.309Z,100608.32
2023-05-10T07:43:07.622Z,100614.75
2023-05-10T07:44:09.949Z,100611.52
2023-05-10T07:45:12.189Z,100612.97
2023-05-10T07:46:16.823Z,100612.05
2023-05-10T07:47:19.317Z,100611.61
2023-05-10T07:48:21.533Z,100609.45
2023-05-10T07:49:26.707Z,100605.45
2023-05-10T07:50:30.491Z,100605.41
2023-05-10T07:51:34.074Z,100605.13
2023-05-10T07:52:36.462Z,100610.13
2023-05-10T07:53:38.946Z,100612.73
2023-05-10T07:54:40.855Z,100606.33
2023-05-10T07:55:42.809Z,100607.80
2023-05-10T07:56:47.121Z,100606.49
2023-05-10T07:57:49.540Z,100604.03
2023-05-10T07:58:52.408Z,100604.13
2023-05-10T07:59:55.184Z,100608.37
2023-05-10T08:00:57.453Z,100593.37
2023-05-10T08:01:59.600Z,100603.27
2023-05-10T08:03:02.045Z,100597.95
2023-05-10T08:04:04.587Z,100599.73
2023-05-10T08:05:07.458Z,100595.12
2023-05-10T08:06:11.608Z,100606.09
2023-05-10T08:07:17.484Z,100600.34
2023-05-10T08:08:20.969Z,100600.80
2023-05-10T08:09:24.819Z,100597.13
2023-05-10T08:10:27.465Z,100594.42
2023-05-10T08:11:31.422Z,100594.42
2023-05-10T08:12:35.058Z,100594.10
2023-05-10T08:13:39.417Z,100595.55
2023-05-10T08:14:41.796Z,100594.10
2023-05-10T08:15:44.123Z,100597.66
2023-05-10T08:16:47.654Z,100598.03
2023-05-10T08:17:49.972Z,100588.30
2023-05-10T08:18:52.675Z,100583.02
2023-05-10T08:19:55.130Z,100595.77
2023-05-10T08:20:57.246Z,100592.16
2023-05-10T08:21:59.650Z,100589.39
2023-05-10T08:23:01.971Z,100584.62
2023-05-10T08:24:05.660Z,100587.72
2023-05-10T08:25:09.586Z,100585.41
2023-05-10T08:26:12.495Z,100585.41
2023-05-10T08:27:14.720Z,100587.86
2023-05-10T08:28:16.991Z,100585.85
2023-05-10T08:29:21.353Z,100580.31
2023-05-10T08:30:23.696Z,100581.67
2023-05-10T08:31:26.900Z,100587.61
2023-05-10T08:32:29.368Z,100588.27
2023-05-10T08:33:32.823Z,100583.64
2023-05-10T08:34:35.082Z,100593.84
2023-05-10T08:35:37.235Z,100590.17
2023-05-10T08:36:39.846Z,100587.19
2023-05-10T08:37:42.207Z,100588.00
2023-05-10T08:38:44.377Z,100591.38
2023-05-10T08:39:48.381Z,100580.66
2023-05-10T08:40:56.213Z,100584.23
2023-05-10T08:42:02.936Z,100587.30
2023-05-10T08:43:10.216Z,100579.94
2023-05-10T08:44:13.962Z,100578.30
2023-05-10T08:45:17.805Z,100589.56
2023-05-10T08:46:21.787Z,100582.31
2023-05-10T08:47:25.642Z,100582.00
2023-05-10T08:48:30.511Z,100585.17
2023-05-10T08:49:33.761Z,100588.17
2023-05-10T08:50:42.382Z,100583.07
2023-05-10T08:51:51.404Z,100582.15
2023-05-10T08:52:58.204Z,100582.75
2023-05-10T08:54:01.402Z,100580.36
2023-05-10T08:55:04.512Z,100576.58
2023-05-10T08:56:07.933Z,100580.16
2023-05-10T08:57:11.318Z,100575.81
2023-05-10T08:58:14.103Z,100569.88
2023-05-10T08:59:16.528Z,100570.71
2023-05-10T09:00:20.279Z,100561.92
2023-05-10T09:01:23.812Z,100561.92
2023-05-10T09:02:28.232Z,100575.75
2023-05-10T09:03:32.627Z,100568.44
2023-05-10T09:04:34.729Z,100570.42
2023-05-10T09:05:38.252Z,100570.23
2023-05-10T09:06:42.274Z,100576.63
2023-05-10T09:07:44.719Z,100575.34
2023-05-10T09:08:48.022Z,100576.30
2023-05-10T09:09:53.107Z,100568.23
2023-05-10T09:10:59.780Z,100572.22
2023-05-10T09:12:05.408Z,100568.77
2023-05-10T09:13:10.154Z,100575.86
2023-05-10T09:14:13.629Z,100573.66
2023-05-10T09:15:17.367Z,100568.41
2023-05-10T09:16:22.422Z,100572.38
2023-05-10T09:17:28.173Z,100570.45
2023-05-10T09:18:31.427Z,100564.86
2023-05-10T09:19:34.095Z,100571.52
2023-05-10T09:20:36.326Z,100567.55
2023-05-10T09:21:38.734Z,100567.23
2023-05-10T09:22:41.145Z,100563.03
2023-05-10T09:23:48.238Z,100563.29
2023-05-10T09:25:05.662Z,100562.78
2023-05-10T09:26:08.228Z,100559.73
2023-05-10T09:27:10.679Z,100568.70
2023-05-10T09:28:13.294Z,100563.29
2023-05-10T09:29:17.746Z,100564.63
2023-05-10T09:30:28.355Z,100562.38
2023-05-10T09:31:52.536Z,100560.52
2023-05-10T09:32:57.404Z,100559.85
2023-05-10T09:33:59.902Z,100566.95
2023-05-10T09:35:15.108Z,100564.84
2023-05-10T09:36:18.372Z,100549.58
2023-05-10T09:37:24.717Z,100555.36
2023-05-10T09:38:27.101Z,100552.59
2023-05-10T09:39:36.648Z,100554.86
2023-05-10T09:40:39.960Z,100555.10
2023-05-10T09:41:43.104Z,100547.95
2023-05-10T09:42:55.247Z,100559.80
2023-05-10T09:43:59.321Z,100559.75
2023-05-10T09:45:09.325Z,100554.29
2023-05-10T09:46:13.241Z,100559.60
2023-05-10T09:47:20.917Z,100556.20
2023-05-10T09:48:25.925Z,100555.20
2023-05-10T09:49:28.676Z,100558.93
2023-05-10T09:50:31.335Z,100557.08
2023-05-10T09:51:36.640Z,100555.05
2023-05-10T09:52:56.405Z,100555.87
2023-05-10T09:54:18.016Z,100558.41
2023-05-10T09:55:25.677Z,100562.98
2023-05-10T09:56:36.238Z,100560.45
2023-05-10T09:57:39.319Z,100558.42
2023-05-10T09:58:42.315Z,100559.73
2023-05-10T09:59:44.927Z,100558.72
2023-05-10T10:00:50.683Z,100566.92
2023-05-10T10:01:55.278Z,100548.27
2023-05-10T10:03:00.229Z,100566.39
2023-05-10T10:04:09.165Z,100563.41
2023-05-10T10:05:13.550Z,100563.59
2023-05-10T10:06:29.524Z,100557.12
2023-05-10T10:07:27.849Z,100554.59
2023-05-10T10:08:30.666Z,100553.58
2023-05-10T10:09:35.371Z,100553.94
2023-05-10T10:10:46.912Z,100554.03
2023-05-10T10:11:49.423Z,100558.97
2023-05-10T10:12:52.361Z,100556.35
2023-05-10T10:13:55.531Z,100555.71
2023-05-10T10:14:59.611Z,100549.45
2023-05-10T10:16:03.073Z,100554.88
2023-05-10T10:17:08.667Z,100554.23
2023-05-10T10:18:15.921Z,100548.58
2023-05-10T10:19:21.916Z,100548.94
2023-05-10T10:20:25.515Z,100545.83
2023-05-10T10:21:29.520Z,100547.88
2023-05-10T10:22:31.696Z,100542.80
2023-05-10T10:23:35.113Z,100539.13
2023-05-10T10:24:38.401Z,100546.38
2023-05-10T10:25:41.335Z,100547.79
2023-05-10T10:26:45.798Z,100547.20
2023-05-10T10:27:58.553Z,100540.27
2023-05-10T10:29:14.745Z,100540.27
2023-05-10T10:30:30.210Z,100541.84
2023-05-10T10:32:06.652Z,100544.86
2023-05-10T10:33:38.850Z,100539.30
2023-05-10T10:34:42.564Z,100542.31
2023-05-10T10:35:47.646Z,100540.64
2023-05-10T10:36:50.407Z,100537.50
2023-05-10T10:37:52.636Z,100535.05
2023-05-10T10:39:00.032Z,100536.94
2023-05-10T10:40:06.127Z,100541.50
2023-05-10T10:42:47.677Z,100525.56
2023-05-10T10:43:50.263Z,100534.19
2023-05-10T10:44:55.973Z,100531.66
2023-05-10T10:46:18.320Z,100526.41
2023-05-10T10:47:24.926Z,100527.39
2023-05-10T10:48:27.157Z,100531.14
2023-05-10T10:49:32.818Z,100531.17
2023-05-10T10:50:38.874Z,100524.63
2023-05-10T10:51:44.954Z,100520.04
2023-05-10T10:52:49.191Z,100518.13
2023-05-10T10:53:52.136Z,100519.81
2023-05-10T10:55:01.262Z,100522.50
2023-05-10T10:56:10.271Z,100510.74
2023-05-10T10:57:18.983Z,100518.80
2023-05-10T10:58:32.647Z,100517.82
2023-05-10T10:59:34.923Z,100520.22
2023-05-10T11:00:40.387Z,100516.34
2023-05-10T11:01:45.905Z,100507.87
2023-05-10T11:03:06.998Z,100507.77
2023-05-10T11:04:13.255Z,100505.45
2023-05-10T11:05:52.913Z,100512.02
2023-05-10T11:06:59.811Z,100503.72
2023-05-10T11:08:08.997Z,100511.77
2023-05-10T11:09:13.329Z,100506.55
2023-05-10T11:10:19.557Z,100501.23
2023-05-10T11:11:23.017Z,100500.72
2023-05-10T11:12:25.274Z,100505.28
2023-05-10T11:13:30.951Z,100502.91
2023-05-10T11:14:37.289Z,100505.52
2023-05-10T11:15:51.816Z,100501.90
2023-05-10T11:17:02.705Z,100494.98
2023-05-10T11:18:21.176Z,100506.93
2023-05-10T11:19:27.667Z,100507.80
2023-05-10T11:20:34.828Z,100503.55
2023-05-10T11:21:58.149Z,100502.55
2023-05-10T11:23:19.806Z,100505.06
2023-05-10T11:24:28.466Z,100509.34
2023-05-10T11:25:30.663Z,100508.52
2023-05-10T11:26:36.012Z,100503.86
2023-05-10T11:27:39.214Z,100501.97
2023-05-10T11:28:46.694Z,100504.30
2023-05-10T11:29:53.119Z,100501.31
2023-05-10T11:31:04.966Z,100490.77
2023-05-10T11:32:14.424Z,100496.53
2023-05-10T11:33:23.275Z,100498.62
2023-05-10T11:34:33.320Z,100496.12
2023-05-10T11:35:43.448Z,100502.41
2023-05-10T11:36:49.573Z,100496.81
2023-05-10T11:37:52.064Z,100497.52
2023-05-10T11:38:55.616Z,100497.23
2023-05-10T11:39:58.991Z,100497.68
2023-05-10T11:41:01.417Z,100488.75
2023-05-10T11:42:04.096Z,100495.14
2023-05-10T11:43:07.557Z,100506.95
2023-05-10T11:44:10.454Z,100502.23
2023-05-10T11:45:12.764Z,100497.66
2023-05-10T11:46:17.360Z,100497.27
2023-05-10T11:47:20.847Z,100499.19
2023-05-10T11:48:24.439Z,100505.41
2023-05-10T11:49:28.015Z,100509.45
2023-05-10T11:50:30.952Z,100507.34
2023-05-10T11:51:36.888Z,100505.00
2023-05-10T11:52:39.417Z,100511.09
2023-05-10T11:53:42.759Z,100502.88
2023-05-10T11:54:55.773Z,100506.64
2023-05-10T11:56:09.177Z,100510.83
2023-05-10T11:57:11.881Z,100509.94
2023-05-10T11:58:15.069Z,100504.41
2023-05-10T11:59:17.249Z,100496.80
2023-05-10T12:00:20.467Z,100507.95
2023-05-10T12:01:26.053Z,100498.66
2023-05-10T12:02:30.431Z,100500.95
2023-05-10T12:03:33.951Z,100503.75
2023-05-10T12:04:36.828Z,100504.58
2023-05-10T12:05:42.950Z,100493.23
2023-05-10T12:06:46.935Z,100496.23
2023-05-10T12:07:49.407Z,100498.53
2023-05-10T12:08:53.497Z,100508.70
2023-05-10T12:10:19.156Z,100501.30
2023-05-10T12:11:27.583Z,100501.30
2023-05-10T12:12:39.164Z,100504.53
2023-05-10T12:13:43.420Z,100503.81
2023-05-10T12:14:49.460Z,100502.52
2023-05-10T12:15:51.854Z,100499.69
2023-05-10T12:16:54.280Z,100503.34
2023-05-10T12:17:59.754Z,100503.45
2023-05-10T12:19:02.264Z,100499.39
2023-05-10T12:20:22.430Z,100499.13
2023-05-10T12:21:25.288Z,100501.22
2023-05-10T12:22:27.425Z,100490.15
2023-05-10T12:23:30.650Z,100491.48
2023-05-10T12:24:36.958Z,100496.89
2023-05-10T12:25:39.960Z,100492.21